Norbank — PGIS — position and weather

sailwx.info

Track history (hours):
 
Tides and Currents Weather Stations Pressure Air Temp Water Temp Dewpoint Dewpoint Depression Visibility Wind Speed Wind Dir Waves Ship Positions

Norbank

Operator: P & O Ferries

Last reported at 2019-Jul-20 01:30 UTC. Time now 2019-Jul-20 01:56 UTC.
Position N 53°32' W 003°54'.

Length 167 m; draft 5.7 m.

Type: Ship (hazmat cat A). MMSI: 246213000.

Date/timePositionNaut miles runAvg speedWind from/ knotsBaromVisibWave heightAir tempDewpointWater temp
2019-Jul-20 01:30N 53°32' W 003°54'817.0
2019-Jul-20 01:00N 53°33' W 004°08'917.8
2019-Jul-20 00:29N 53°35' W 004°23'1419.7
2019-Jul-19 23:47N 53°34' W 004°47'4619.7
2019-Jul-19 21:27N 53°21' W 006°00'614.0
2019-Jul-19 21:00N 53°21' W 006°11'2 1.8
2019-Jul-19 20:11N 53°21' W 006°13'0 0.0
2019-Jul-19 20:00N 53°21' W 006°13'0 0.0
2019-Jul-19 19:30N 53°21' W 006°13'0 0.0
2019-Jul-19 19:00N 53°21' W 006°13'0 0.0
2019-Jul-19 18:30N 53°21' W 006°13'0 0.0
2019-Jul-19 18:00N 53°21' W 006°13'0 0.0
2019-Jul-19 17:30N 53°21' W 006°13'0 0.0
2019-Jul-19 17:00N 53°21' W 006°13'0 0.0
2019-Jul-19 16:30N 53°21' W 006°13'2 3.5
2019-Jul-19 16:00N 53°21' W 006°10'714.5
2019-Jul-19 15:30N 53°22' W 005°58'8020.3
2019-Jul-19 11:34N 53°34' W 003°46'120.0
2019-Jul-19 11:31N 53°33' W 003°43'1019.9
2019-Jul-19 11:01N 53°33' W 003°27'918.3
2019-Jul-19 10:31N 53°32' W 003°11'5 9.9
2019-Jul-19 10:00N 53°29' W 003°04'3 5.3
2019-Jul-19 09:30N 53°27' W 003°01'0 0.5
2019-Jul-19 09:00N 53°27' W 003°01'0 0.8
2019-Jul-19 08:28N 53°27' W 003°01'0 0.0
2019-Jul-19 07:58N 53°27' W 003°01'0 0.0
2019-Jul-19 07:28N 53°27' W 003°01'0 0.0
2019-Jul-19 06:58N 53°27' W 003°01'0 0.0
2019-Jul-19 06:30N 53°27' W 003°01'0 0.0
2019-Jul-19 06:00N 53°27' W 003°01'0 0.0
2019-Jul-19 05:30N 53°27' W 003°01'0 0.0
2019-Jul-19 05:00N 53°27' W 003°01'0 0.0
2019-Jul-19 04:30N 53°27' W 003°01'0 0.8
2019-Jul-19 03:58N 53°27' W 003°01'0 0.7
2019-Jul-19 03:30N 53°27' W 003°02'714.1
2019-Jul-19 03:00N 53°32' W 003°11'917.3
2019-Jul-19 02:30N 53°31' W 003°25'815.7
2019-Jul-19 02:00N 53°31' W 003°39'816.1
2019-Jul-19 01:30N 53°32' W 003°52'816.8
2019-Jul-19 01:00N 53°34' W 004°06'1517.1
2019-Jul-19 00:06N 53°36' W 004°32'418.2
2019-Jul-18 23:53N 53°35' W 004°38'5118.2
2019-Jul-18 21:07N 53°21' W 005°60'218.6
2019-Jul-18 21:00N 53°20' W 006°03'611.3
2019-Jul-18 20:30N 53°21' W 006°12'0 0.7
2019-Jul-18 19:57N 53°21' W 006°13'0 0.0
2019-Jul-18 19:30N 53°21' W 006°13'0 0.0
2019-Jul-18 19:00N 53°21' W 006°13'0 0.0
2019-Jul-18 18:30N 53°21' W 006°13'0 0.0
2019-Jul-18 18:00N 53°21' W 006°13'0 0.0
2019-Jul-18 17:30N 53°21' W 006°13'0 0.0
2019-Jul-18 17:00N 53°21' W 006°13'0 0.0
2019-Jul-18 16:30N 53°21' W 006°13'2 3.3
2019-Jul-18 16:00N 53°21' W 006°10'815.4
2019-Jul-18 15:28N 53°22' W 005°57'816.9
2019-Jul-18 15:01N 53°24' W 005°44'6617.7
2019-Jul-18 11:18N 53°34' W 003°55'618.2
2019-Jul-18 10:59N 53°34' W 003°45'817.6
2019-Jul-18 10:31N 53°33' W 003°31'917.7
2019-Jul-18 10:01N 53°32' W 003°17'815.2
2019-Jul-18 09:31N 53°29' W 003°05'3 5.9
2019-Jul-18 09:00N 53°27' W 003°01'0 0.9
2019-Jul-18 08:30N 53°27' W 003°01'0 0.0
2019-Jul-18 08:00N 53°27' W 003°01'0 0.0
2019-Jul-18 07:30N 53°27' W 003°01'0 0.0
2019-Jul-18 07:00N 53°27' W 003°01'0 0.0
2019-Jul-18 06:30N 53°27' W 003°01'0 0.0
2019-Jul-18 06:00N 53°27' W 003°01'0 0.0
2019-Jul-18 05:30N 53°27' W 003°01'0 0.0
2019-Jul-18 05:00N 53°27' W 003°01'0 0.0
2019-Jul-18 04:30N 53°27' W 003°01'0 0.8
2019-Jul-18 04:00N 53°27' W 003°01'0 0.4
2019-Jul-18 03:30N 53°27' W 003°01'713.2
2019-Jul-18 03:00N 53°32' W 003°09'917.3
2019-Jul-18 02:30N 53°31' W 003°23'918.1
2019-Jul-18 02:00N 53°31' W 003°38'918.1
2019-Jul-18 01:30N 53°31' W 003°53'918.2
2019-Jul-18 01:00N 53°33' W 004°08'918.3
2019-Jul-18 00:30N 53°35' W 004°24'5919.6
2019-Jul-17 21:29N 53°21' W 006°00'713.7
2019-Jul-17 21:01N 53°21' W 006°11'1 2.4
2019-Jul-17 20:29N 53°21' W 006°13'0 0.0
2019-Jul-17 19:58N 53°21' W 006°13'0 0.0
2019-Jul-17 19:19N 53°21' W 006°13'0 0.0
2019-Jul-17 18:43N 53°21' W 006°13'0 0.0
2019-Jul-17 18:04N 53°21' W 006°13'0 0.0
2019-Jul-17 17:58N 53°21' W 006°13'0 0.0
2019-Jul-17 17:27N 53°21' W 006°13'0 0.0
2019-Jul-17 16:51N 53°21' W 006°13'0 0.0
2019-Jul-17 16:24N 53°21' W 006°13'2 3.8
2019-Jul-17 16:00N 53°21' W 006°11'713.5
2019-Jul-17 15:30N 53°22' W 005°59'815.6
2019-Jul-17 15:00N 53°24' W 005°47'6517.2
2019-Jul-17 11:12N 53°34' W 003°58'618.6
2019-Jul-17 10:53N 53°34' W 003°48'718.1
2019-Jul-17 10:30N 53°33' W 003°37'917.9
2019-Jul-17 10:00N 53°33' W 003°22'917.6
2019-Jul-17 09:30N 53°31' W 003°07'611.3
2019-Jul-17 09:00N 53°27' W 003°01'0 0.1
2019-Jul-17 08:30N 53°27' W 003°01'0 0.7
2019-Jul-17 07:58N 53°27' W 003°01'0 0.0
2019-Jul-17 07:28N 53°27' W 003°01'0 0.0
2019-Jul-17 07:00N 53°27' W 003°01'0 0.0
2019-Jul-17 06:30N 53°27' W 003°01'0 0.0
2019-Jul-17 06:00N 53°27' W 003°01'0 0.0
2019-Jul-17 05:30N 53°27' W 003°01'0 0.0
2019-Jul-17 05:00N 53°27' W 003°01'0 0.0
2019-Jul-17 04:29N 53°27' W 003°01'0 0.9
2019-Jul-17 04:00N 53°27' W 003°01'0 0.4
2019-Jul-17 03:30N 53°27' W 003°01'713.5
2019-Jul-17 03:01N 53°32' W 003°09'917.1
2019-Jul-17 02:30N 53°31' W 003°24'816.7
2019-Jul-17 02:00N 53°31' W 003°38'816.0
2019-Jul-17 01:30N 53°32' W 003°51'816.0
2019-Jul-17 01:00N 53°33' W 004°04'815.8
2019-Jul-17 00:30N 53°35' W 004°18'916.1
2019-Jul-16 23:58N 53°36' W 004°32'816.9
2019-Jul-16 23:30N 53°34' W 004°45'917.4
2019-Jul-16 22:59N 53°32' W 004°60'3418.0
2019-Jul-16 21:05N 53°22' W 005°55'317.8
2019-Jul-16 20:54N 53°21' W 006°00'614.7
2019-Jul-16 20:31N 53°21' W 006°10'2 3.1
2019-Jul-16 19:50N 53°21' W 006°13'0 0.0
2019-Jul-16 19:10N 53°21' W 006°13'0 0.0
2019-Jul-16 18:58N 53°21' W 006°13'0 0.0
2019-Jul-16 18:25N 53°21' W 006°13'0 0.0
2019-Jul-16 17:58N 53°21' W 006°13'0 0.0
2019-Jul-16 17:22N 53°21' W 006°13'0 0.0
2019-Jul-16 16:39N 53°21' W 006°13'0 0.0
2019-Jul-16 16:30N 53°21' W 006°13'1 2.6
2019-Jul-16 16:00N 53°21' W 006°11'713.9
2019-Jul-16 15:29N 53°22' W 005°59'1516.7
2019-Jul-16 14:36N 53°26' W 005°35'1016.5
2019-Jul-16 13:59N 53°29' W 005°19'5216.7
2019-Jul-16 10:51N 53°34' W 003°51'616.9
2019-Jul-16 10:30N 53°33' W 003°41'816.5
2019-Jul-16 10:00N 53°33' W 003°27'816.6
2019-Jul-16 09:31N 53°31' W 003°14'815.6
2019-Jul-16 09:00N 53°27' W 003°02'1 1.7
2019-Jul-16 08:30N 53°27' W 003°01'0 0.8
2019-Jul-16 08:00N 53°27' W 003°01'0 0.0
2019-Jul-16 07:30N 53°27' W 003°01'0 0.0
2019-Jul-16 07:00N 53°27' W 003°01'0 0.0
2019-Jul-16 06:30N 53°27' W 003°01'0 0.0
2019-Jul-16 06:00N 53°27' W 003°01'0 0.0
2019-Jul-16 05:30N 53°27' W 003°01'0 0.0
2019-Jul-16 05:00N 53°27' W 003°01'0 0.2
2019-Jul-16 04:30N 53°27' W 003°01'0 0.8
2019-Jul-16 04:00N 53°27' W 003°01'1 1.3
2019-Jul-16 03:30N 53°27' W 003°02'611.1
2019-Jul-16 03:01N 53°32' W 003°08'815.4
2019-Jul-16 02:31N 53°31' W 003°21'713.7
2019-Jul-16 02:01N 53°31' W 003°32'714.4
2019-Jul-16 01:31N 53°31' W 003°44'714.7
2019-Jul-16 01:00N 53°32' W 003°57'815.4
2019-Jul-16 00:31N 53°33' W 004°10'915.6
2019-Jul-15 23:57N 53°34' W 004°24'716.1
2019-Jul-15 23:31N 53°35' W 004°36'816.8
2019-Jul-15 23:00N 53°34' W 004°50'4117.8
2019-Jul-15 20:42N 53°22' W 005°56'417.7
2019-Jul-15 20:30N 53°21' W 006°02'612.3
2019-Jul-15 20:00N 53°21' W 006°12'1 1.0
2019-Jul-15 19:18N 53°21' W 006°13'0 0.0
2019-Jul-15 18:39N 53°21' W 006°13'0 0.0
2019-Jul-15 18:27N 53°21' W 006°13'0 0.0
2019-Jul-15 18:00N 53°21' W 006°13'0 0.0
2019-Jul-15 17:23N 53°21' W 006°13'0 0.2
2019-Jul-15 16:41N 53°21' W 006°13'0 0.1
2019-Jul-15 16:29N 53°21' W 006°13'0 0.0
2019-Jul-15 15:59N 53°21' W 006°13'0 0.0
2019-Jul-15 15:29N 53°21' W 006°13'0 0.0
2019-Jul-15 14:55N 53°21' W 006°13'0 0.0
2019-Jul-15 14:19N 53°21' W 006°13'0 0.0
2019-Jul-15 13:43N 53°21' W 006°13'0 0.0
2019-Jul-15 13:10N 53°21' W 006°13'0 0.0
2019-Jul-15 12:58N 53°21' W 006°13'0 0.0
2019-Jul-15 12:30N 53°21' W 006°13'0 0.0
2019-Jul-15 12:00N 53°21' W 006°13'0 0.0
2019-Jul-15 11:24N 53°21' W 006°13'0 0.0
2019-Jul-15 10:51N 53°21' W 006°13'0 0.0
2019-Jul-15 10:14N 53°21' W 006°13'0 0.0
2019-Jul-15 09:59N 53°21' W 006°13'0 0.0
2019-Jul-15 09:29N 53°21' W 006°13'0 0.0
2019-Jul-15 08:59N 53°21' W 006°13'0 0.0
2019-Jul-15 08:26N 53°21' W 006°13'0 0.0
2019-Jul-15 07:49N 53°21' W 006°13'0 0.2
2019-Jul-15 07:07N 53°21' W 006°13'0 0.0
2019-Jul-15 06:40N 53°21' W 006°13'0 0.0
2019-Jul-15 06:28N 53°21' W 006°13'0 0.0
2019-Jul-15 06:00N 53°21' W 006°13'0 0.0
2019-Jul-15 05:21N 53°21' W 006°13'0 0.0
2019-Jul-15 04:51N 53°21' W 006°13'0 0.0
2019-Jul-15 04:30N 53°21' W 006°13'2 3.7
2019-Jul-15 04:00N 53°21' W 006°10'714.0
2019-Jul-15 03:30N 53°22' W 005°59'7516.2
2019-Jul-14 22:54N 53°33' W 003°55'717.0
2019-Jul-14 22:31N 53°33' W 003°44'816.6
2019-Jul-14 22:01N 53°33' W 003°30'917.2
2019-Jul-14 21:31N 53°31' W 003°15'816.2
2019-Jul-14 21:01N 53°28' W 003°03'2 3.0
2019-Jul-14 20:30N 53°27' W 003°01'0 0.8
2019-Jul-14 19:58N 53°27' W 003°01'0 0.0
2019-Jul-14 19:28N 53°27' W 003°01'0 0.0
2019-Jul-14 19:00N 53°27' W 003°01'0 0.0
2019-Jul-14 18:30N 53°27' W 003°01'0 0.0
2019-Jul-14 18:00N 53°27' W 003°01'0 0.0
2019-Jul-14 17:30N 53°27' W 003°01'0 0.0
2019-Jul-14 17:00N 53°27' W 003°01'0 0.0
2019-Jul-14 16:29N 53°27' W 003°01'0 0.0
2019-Jul-14 15:56N 53°27' W 003°01'0 0.0
2019-Jul-14 15:29N 53°27' W 003°01'0 0.0
2019-Jul-14 14:59N 53°27' W 003°01'0 0.0
2019-Jul-14 14:28N 53°27' W 003°01'0 0.0
2019-Jul-14 13:58N 53°27' W 003°01'0 0.0
2019-Jul-14 13:28N 53°27' W 003°01'0 0.0
2019-Jul-14 12:58N 53°27' W 003°01'0 0.0
2019-Jul-14 12:28N 53°27' W 003°01'0 0.0
2019-Jul-14 12:00N 53°27' W 003°01'0 0.0
2019-Jul-14 11:30N 53°27' W 003°01'0 0.0
2019-Jul-14 11:00N 53°27' W 003°01'0 0.0
2019-Jul-14 10:30N 53°27' W 003°01'0 0.0
2019-Jul-14 10:00N 53°27' W 003°01'0 0.0
2019-Jul-14 09:29N 53°27' W 003°01'0 0.0
2019-Jul-14 08:59N 53°27' W 003°01'0 0.0
2019-Jul-14 08:29N 53°27' W 003°01'0 0.0
2019-Jul-14 07:59N 53°27' W 003°01'0 0.0
2019-Jul-14 07:28N 53°27' W 003°01'0 0.0
2019-Jul-14 06:58N 53°27' W 003°01'0 0.0
2019-Jul-14 06:28N 53°27' W 003°01'0 0.0
2019-Jul-14 05:58N 53°27' W 003°01'0 0.0
2019-Jul-14 05:28N 53°27' W 003°01'0 0.0
2019-Jul-14 05:00N 53°27' W 003°01'0 0.9
2019-Jul-14 04:30N 53°27' W 003°01'0 0.4
2019-Jul-14 04:00N 53°27' W 003°01'714.4
2019-Jul-14 03:30N 53°32' W 003°11'816.4
2019-Jul-14 03:00N 53°31' W 003°24'714.7
2019-Jul-14 02:30N 53°31' W 003°37'815.0
2019-Jul-14 02:00N 53°32' W 003°49'714.8
2019-Jul-14 01:31N 53°33' W 004°02'7115.0
2019-Jul-13 20:46N 53°21' W 005°60'415.3
2019-Jul-13 20:31N 53°20' W 006°06'4 8.4
2019-Jul-13 20:01N 53°21' W 006°13'0 0.0
2019-Jul-13 19:30N 53°21' W 006°13'0 0.0
2019-Jul-13 19:01N 53°21' W 006°13'0 0.0
2019-Jul-13 18:30N 53°21' W 006°13'0 0.0
2019-Jul-13 18:01N 53°21' W 006°13'0 0.0
2019-Jul-13 17:31N 53°21' W 006°13'0 0.0
2019-Jul-13 17:01N 53°21' W 006°13'0 0.0
2019-Jul-13 16:31N 53°21' W 006°13'2 3.0
2019-Jul-13 15:59N 53°21' W 006°10'714.9
2019-Jul-13 15:30N 53°22' W 005°59'916.8
2019-Jul-13 14:57N 53°24' W 005°43'7218.2
2019-Jul-13 10:57N 53°33' W 003°43'919.9
2019-Jul-13 10:30N 53°33' W 003°28'1019.1
2019-Jul-13 10:00N 53°32' W 003°12'815.8
2019-Jul-13 09:31N 53°27' W 003°01'0 0.8
2019-Jul-13 09:01N 53°27' W 003°01'0 0.5
2019-Jul-13 08:28N 53°27' W 003°01'0 0.0
2019-Jul-13 07:58N 53°27' W 003°01'0 0.0
2019-Jul-13 07:28N 53°27' W 003°01'0 0.0
2019-Jul-13 06:57N 53°27' W 003°01'0 0.0
2019-Jul-13 06:30N 53°27' W 003°01'0 0.0
2019-Jul-13 06:00N 53°27' W 003°01'0 0.0
2019-Jul-13 05:30N 53°27' W 003°01'0 0.0
2019-Jul-13 05:00N 53°27' W 003°01'0 0.0
2019-Jul-13 04:29N 53°27' W 003°01'0 0.9
2019-Jul-13 04:01N 53°27' W 003°01'0 0.2
2019-Jul-13 03:30N 53°27' W 003°01'714.6
2019-Jul-13 03:00N 53°32' W 003°10'917.4
2019-Jul-13 02:30N 53°31' W 003°25'917.5
2019-Jul-13 02:00N 53°31' W 003°40'918.1
2019-Jul-13 01:30N 53°32' W 003°55'917.4
2019-Jul-13 01:00N 53°33' W 004°09'6716.0
2019-Jul-12 20:51N 53°21' W 005°59'515.1
2019-Jul-12 20:30N 53°21' W 006°08'3 6.1
2019-Jul-12 20:00N 53°21' W 006°13'0 0.0
2019-Jul-12 19:25N 53°21' W 006°13'0 0.0
2019-Jul-12 18:43N 53°21' W 006°13'0 0.0
2019-Jul-12 18:28N 53°21' W 006°13'0 0.0
2019-Jul-12 18:01N 53°21' W 006°13'0 0.0
2019-Jul-12 17:18N 53°21' W 006°13'0 0.0
2019-Jul-12 16:40N 53°21' W 006°13'0 0.0
2019-Jul-12 16:31N 53°21' W 006°13'2 4.5
2019-Jul-12 16:01N 53°21' W 006°09'815.6
2019-Jul-12 15:29N 53°22' W 005°56'8017.6
2019-Jul-12 10:58N 53°33' W 003°43'817.6
2019-Jul-12 10:31N 53°33' W 003°30'917.3
2019-Jul-12 10:01N 53°31' W 003°16'816.6
2019-Jul-12 09:30N 53°28' W 003°03'1 2.7
2019-Jul-12 09:00N 53°27' W 003°01'0 0.8
2019-Jul-12 08:29N 53°27' W 003°01'0 0.0
2019-Jul-12 07:59N 53°27' W 003°01'0 0.0
2019-Jul-12 07:29N 53°27' W 003°01'0 0.0
2019-Jul-12 06:59N 53°27' W 003°01'0 0.0
2019-Jul-12 06:28N 53°27' W 003°01'0 0.0
2019-Jul-12 05:58N 53°27' W 003°01'0 0.0
2019-Jul-12 05:28N 53°27' W 003°01'0 0.0
2019-Jul-12 04:58N 53°27' W 003°01'0 0.0
2019-Jul-12 04:30N 53°27' W 003°01'0 0.9
2019-Jul-12 04:00N 53°27' W 003°01'0 0.3
2019-Jul-12 03:31N 53°27' W 003°01'714.6
2019-Jul-12 03:00N 53°32' W 003°10'918.6
2019-Jul-12 02:30N 53°31' W 003°26'1918.9
2019-Jul-12 01:30N 53°33' W 003°58'1019.0
2019-Jul-12 01:00N 53°35' W 004°13'1018.7
2019-Jul-12 00:29N 53°37' W 004°29'5617.0
2019-Jul-11 21:10N 53°21' W 005°60'316.4
2019-Jul-11 21:01N 53°20' W 006°04'510.3
2019-Jul-11 20:30N 53°21' W 006°13'0 0.3
2019-Jul-11 19:43N 53°21' W 006°13'0 0.0
2019-Jul-11 19:01N 53°21' W 006°13'0 0.0
2019-Jul-11 18:58N 53°21' W 006°13'0 0.0
2019-Jul-11 18:22N 53°21' W 006°13'0 0.0
2019-Jul-11 17:39N 53°21' W 006°13'0 0.0
2019-Jul-11 17:30N 53°21' W 006°13'0 0.0
2019-Jul-11 16:57N 53°21' W 006°13'0 0.0
2019-Jul-11 16:30N 53°21' W 006°13'2 4.3
2019-Jul-11 16:00N 53°21' W 006°09'714.6
2019-Jul-11 15:30N 53°22' W 005°58'7917.1
2019-Jul-11 10:53N 53°34' W 003°46'717.7
2019-Jul-11 10:30N 53°33' W 003°35'917.5
2019-Jul-11 10:00N 53°32' W 003°20'917.5
2019-Jul-11 09:30N 53°31' W 003°06'5 9.1
2019-Jul-11 09:00N 53°27' W 003°01'0 0.8
2019-Jul-11 08:30N 53°27' W 003°01'0 0.2
2019-Jul-11 07:59N 53°27' W 003°01'0 0.0
2019-Jul-11 07:29N 53°27' W 003°01'0 0.0
2019-Jul-11 06:56N 53°27' W 003°01'0 0.0
2019-Jul-11 06:28N 53°27' W 003°01'0 0.0
2019-Jul-11 05:55N 53°27' W 003°01'0 0.0
2019-Jul-11 05:25N 53°27' W 003°01'0 0.0
2019-Jul-11 04:58N 53°27' W 003°01'0 0.0
2019-Jul-11 04:28N 53°27' W 003°01'0 0.9
2019-Jul-11 04:00N 53°27' W 003°01'0 0.4
2019-Jul-11 03:31N 53°27' W 003°01'714.4
2019-Jul-11 03:01N 53°32' W 003°10'1019.1
2019-Jul-11 02:31N 53°31' W 003°26'1019.5
2019-Jul-11 02:00N 53°31' W 003°42'1019.7
2019-Jul-11 01:31N 53°34' W 003°58'1519.8
2019-Jul-11 00:46N 53°36' W 004°23'5717.1
2019-Jul-10 21:25N 53°22' W 005°57'615.2
2019-Jul-10 21:00N 53°20' W 006°07'4 7.7
2019-Jul-10 20:30N 53°21' W 006°13'0 0.0
2019-Jul-10 20:00N 53°21' W 006°13'0 0.0
2019-Jul-10 19:27N 53°21' W 006°13'0 0.0
2019-Jul-10 18:41N 53°21' W 006°13'0 0.0
2019-Jul-10 18:26N 53°21' W 006°13'0 0.0
2019-Jul-10 17:59N 53°21' W 006°13'0 0.0
2019-Jul-10 17:17N 53°21' W 006°13'0 0.0
2019-Jul-10 16:59N 53°21' W 006°13'0 0.0
2019-Jul-10 16:30N 53°21' W 006°13'2 4.9
2019-Jul-10 16:00N 53°21' W 006°09'816.1
2019-Jul-10 15:30N 53°22' W 005°56'7316.2
2019-Jul-10 10:59N 53°34' W 003°54'817.1
2019-Jul-10 10:30N 53°33' W 003°40'917.6
2019-Jul-10 10:00N 53°33' W 003°25'917.6
2019-Jul-10 09:30N 53°32' W 003°11'815.1
2019-Jul-10 09:01N 53°27' W 003°01'0 0.2
2019-Jul-10 08:31N 53°27' W 003°01'0 0.9
2019-Jul-10 08:00N 53°27' W 003°01'0 0.0
2019-Jul-10 07:30N 53°27' W 003°01'0 0.0
2019-Jul-10 06:59N 53°27' W 003°01'0 0.0
2019-Jul-10 06:29N 53°27' W 003°01'0 0.0
2019-Jul-10 05:59N 53°27' W 003°01'0 0.0
2019-Jul-10 05:29N 53°27' W 003°01'0 0.0
2019-Jul-10 04:59N 53°27' W 003°01'0 0.0
2019-Jul-10 04:28N 53°27' W 003°01'0 0.0
2019-Jul-10 03:58N 53°27' W 003°01'0 0.4
2019-Jul-10 03:30N 53°27' W 003°01'0 1.0
2019-Jul-10 03:00N 53°27' W 003°01'611.5
2019-Jul-10 02:30N 53°31' W 003°07'815.8
2019-Jul-10 02:01N 53°31' W 003°20'1019.9
2019-Jul-10 01:30N 53°31' W 003°37'  
Track history (hours):
 
Tides and Currents Weather Stations Pressure Air Temp Water Temp Dewpoint Dewpoint Depression Visibility Wind Speed Wind Dir Waves Ship Positions

Norbank

Operator: P & O Ferries

Last reported at 2019-Jul-20 01:30 UTC. Time now 2019-Jul-20 01:56 UTC.
Position N 53°32' W 003°54'.

Length 167 m; draft 5.7 m.

Type: Ship (hazmat cat A). MMSI: 246213000.

Date/timePositionNaut miles runAvg speedWind from/ knotsBaromVisibWave heightAir tempDewpointWater temp
2019-Jul-20 01:30N 53°32' W 003°54'817.0
2019-Jul-20 01:00N 53°33' W 004°08'917.8
2019-Jul-20 00:29N 53°35' W 004°23'1419.7
2019-Jul-19 23:47N 53°34' W 004°47'4619.7
2019-Jul-19 21:27N 53°21' W 006°00'614.0
2019-Jul-19 21:00N 53°21' W 006°11'2 1.8
2019-Jul-19 20:11N 53°21' W 006°13'0 0.0
2019-Jul-19 20:00N 53°21' W 006°13'0 0.0
2019-Jul-19 19:30N 53°21' W 006°13'0 0.0
2019-Jul-19 19:00N 53°21' W 006°13'0 0.0
2019-Jul-19 18:30N 53°21' W 006°13'0 0.0
2019-Jul-19 18:00N 53°21' W 006°13'0 0.0
2019-Jul-19 17:30N 53°21' W 006°13'0 0.0
2019-Jul-19 17:00N 53°21' W 006°13'0 0.0
2019-Jul-19 16:30N 53°21' W 006°13'2 3.5
2019-Jul-19 16:00N 53°21' W 006°10'714.5
2019-Jul-19 15:30N 53°22' W 005°58'8020.3
2019-Jul-19 11:34N 53°34' W 003°46'120.0
2019-Jul-19 11:31N 53°33' W 003°43'1019.9
2019-Jul-19 11:01N 53°33' W 003°27'918.3
2019-Jul-19 10:31N 53°32' W 003°11'5 9.9
2019-Jul-19 10:00N 53°29' W 003°04'3 5.3
2019-Jul-19 09:30N 53°27' W 003°01'0 0.5
2019-Jul-19 09:00N 53°27' W 003°01'0 0.8
2019-Jul-19 08:28N 53°27' W 003°01'0 0.0
2019-Jul-19 07:58N 53°27' W 003°01'0 0.0
2019-Jul-19 07:28N 53°27' W 003°01'0 0.0
2019-Jul-19 06:58N 53°27' W 003°01'0 0.0
2019-Jul-19 06:30N 53°27' W 003°01'0 0.0
2019-Jul-19 06:00N 53°27' W 003°01'0 0.0
2019-Jul-19 05:30N 53°27' W 003°01'0 0.0
2019-Jul-19 05:00N 53°27' W 003°01'0 0.0
2019-Jul-19 04:30N 53°27' W 003°01'0 0.8
2019-Jul-19 03:58N 53°27' W 003°01'0 0.7
2019-Jul-19 03:30N 53°27' W 003°02'714.1
2019-Jul-19 03:00N 53°32' W 003°11'917.3
2019-Jul-19 02:30N 53°31' W 003°25'815.7
2019-Jul-19 02:00N 53°31' W 003°39'816.1
2019-Jul-19 01:30N 53°32' W 003°52'816.8
2019-Jul-19 01:00N 53°34' W 004°06'1517.1
2019-Jul-19 00:06N 53°36' W 004°32'418.2
2019-Jul-18 23:53N 53°35' W 004°38'5118.2
2019-Jul-18 21:07N 53°21' W 005°60'218.6
2019-Jul-18 21:00N 53°20' W 006°03'611.3
2019-Jul-18 20:30N 53°21' W 006°12'0 0.7
2019-Jul-18 19:57N 53°21' W 006°13'0 0.0
2019-Jul-18 19:30N 53°21' W 006°13'0 0.0
2019-Jul-18 19:00N 53°21' W 006°13'0 0.0
2019-Jul-18 18:30N 53°21' W 006°13'0 0.0
2019-Jul-18 18:00N 53°21' W 006°13'0 0.0
2019-Jul-18 17:30N 53°21' W 006°13'0 0.0
2019-Jul-18 17:00N 53°21' W 006°13'0 0.0
2019-Jul-18 16:30N 53°21' W 006°13'2 3.3
2019-Jul-18 16:00N 53°21' W 006°10'815.4
2019-Jul-18 15:28N 53°22' W 005°57'816.9
2019-Jul-18 15:01N 53°24' W 005°44'6617.7
2019-Jul-18 11:18N 53°34' W 003°55'618.2
2019-Jul-18 10:59N 53°34' W 003°45'817.6
2019-Jul-18 10:31N 53°33' W 003°31'917.7
2019-Jul-18 10:01N 53°32' W 003°17'815.2
2019-Jul-18 09:31N 53°29' W 003°05'3 5.9
2019-Jul-18 09:00N 53°27' W 003°01'0 0.9
2019-Jul-18 08:30N 53°27' W 003°01'0 0.0
2019-Jul-18 08:00N 53°27' W 003°01'0 0.0
2019-Jul-18 07:30N 53°27' W 003°01'0 0.0
2019-Jul-18 07:00N 53°27' W 003°01'0 0.0
2019-Jul-18 06:30N 53°27' W 003°01'0 0.0
2019-Jul-18 06:00N 53°27' W 003°01'0 0.0
2019-Jul-18 05:30N 53°27' W 003°01'0 0.0
2019-Jul-18 05:00N 53°27' W 003°01'0 0.0
2019-Jul-18 04:30N 53°27' W 003°01'0 0.8
2019-Jul-18 04:00N 53°27' W 003°01'0 0.4
2019-Jul-18 03:30N 53°27' W 003°01'713.2
2019-Jul-18 03:00N 53°32' W 003°09'917.3
2019-Jul-18 02:30N 53°31' W 003°23'918.1
2019-Jul-18 02:00N 53°31' W 003°38'918.1
2019-Jul-18 01:30N 53°31' W 003°53'918.2
2019-Jul-18 01:00N 53°33' W 004°08'918.3
2019-Jul-18 00:30N 53°35' W 004°24'5919.6
2019-Jul-17 21:29N 53°21' W 006°00'713.7
2019-Jul-17 21:01N 53°21' W 006°11'1 2.4
2019-Jul-17 20:29N 53°21' W 006°13'0 0.0
2019-Jul-17 19:58N 53°21' W 006°13'0 0.0
2019-Jul-17 19:19N 53°21' W 006°13'0 0.0
2019-Jul-17 18:43N 53°21' W 006°13'0 0.0
2019-Jul-17 18:04N 53°21' W 006°13'0 0.0
2019-Jul-17 17:58N 53°21' W 006°13'0 0.0
2019-Jul-17 17:27N 53°21' W 006°13'0 0.0
2019-Jul-17 16:51N 53°21' W 006°13'0 0.0
2019-Jul-17 16:24N 53°21' W 006°13'2 3.8
2019-Jul-17 16:00N 53°21' W 006°11'713.5
2019-Jul-17 15:30N 53°22' W 005°59'815.6
2019-Jul-17 15:00N 53°24' W 005°47'6517.2
2019-Jul-17 11:12N 53°34' W 003°58'618.6
2019-Jul-17 10:53N 53°34' W 003°48'718.1
2019-Jul-17 10:30N 53°33' W 003°37'917.9
2019-Jul-17 10:00N 53°33' W 003°22'917.6
2019-Jul-17 09:30N 53°31' W 003°07'611.3
2019-Jul-17 09:00N 53°27' W 003°01'0 0.1
2019-Jul-17 08:30N 53°27' W 003°01'0 0.7
2019-Jul-17 07:58N 53°27' W 003°01'0 0.0
2019-Jul-17 07:28N 53°27' W 003°01'0 0.0
2019-Jul-17 07:00N 53°27' W 003°01'0 0.0
2019-Jul-17 06:30N 53°27' W 003°01'0 0.0
2019-Jul-17 06:00N 53°27' W 003°01'0 0.0
2019-Jul-17 05:30N 53°27' W 003°01'0 0.0
2019-Jul-17 05:00N 53°27' W 003°01'0 0.0
2019-Jul-17 04:29N 53°27' W 003°01'0 0.9
2019-Jul-17 04:00N 53°27' W 003°01'0 0.4
2019-Jul-17 03:30N 53°27' W 003°01'713.5
2019-Jul-17 03:01N 53°32' W 003°09'917.1
2019-Jul-17 02:30N 53°31' W 003°24'816.7
2019-Jul-17 02:00N 53°31' W 003°38'816.0
2019-Jul-17 01:30N 53°32' W 003°51'816.0
2019-Jul-17 01:00N 53°33' W 004°04'815.8
2019-Jul-17 00:30N 53°35' W 004°18'916.1
2019-Jul-16 23:58N 53°36' W 004°32'816.9
2019-Jul-16 23:30N 53°34' W 004°45'917.4
2019-Jul-16 22:59N 53°32' W 004°60'3418.0
2019-Jul-16 21:05N 53°22' W 005°55'317.8
2019-Jul-16 20:54N 53°21' W 006°00'614.7
2019-Jul-16 20:31N 53°21' W 006°10'2 3.1
2019-Jul-16 19:50N 53°21' W 006°13'0 0.0
2019-Jul-16 19:10N 53°21' W 006°13'0 0.0
2019-Jul-16 18:58N 53°21' W 006°13'0 0.0
2019-Jul-16 18:25N 53°21' W 006°13'0 0.0
2019-Jul-16 17:58N 53°21' W 006°13'0 0.0
2019-Jul-16 17:22N 53°21' W 006°13'0 0.0
2019-Jul-16 16:39N 53°21' W 006°13'0 0.0
2019-Jul-16 16:30N 53°21' W 006°13'1 2.6
2019-Jul-16 16:00N 53°21' W 006°11'713.9
2019-Jul-16 15:29N 53°22' W 005°59'1516.7
2019-Jul-16 14:36N 53°26' W 005°35'1016.5
2019-Jul-16 13:59N 53°29' W 005°19'5216.7
2019-Jul-16 10:51N 53°34' W 003°51'616.9
2019-Jul-16 10:30N 53°33' W 003°41'816.5
2019-Jul-16 10:00N 53°33' W 003°27'816.6
2019-Jul-16 09:31N 53°31' W 003°14'815.6
2019-Jul-16 09:00N 53°27' W 003°02'1 1.7
2019-Jul-16 08:30N 53°27' W 003°01'0 0.8
2019-Jul-16 08:00N 53°27' W 003°01'0 0.0
2019-Jul-16 07:30N 53°27' W 003°01'0 0.0
2019-Jul-16 07:00N 53°27' W 003°01'0 0.0
2019-Jul-16 06:30N 53°27' W 003°01'0 0.0
2019-Jul-16 06:00N 53°27' W 003°01'0 0.0
2019-Jul-16 05:30N 53°27' W 003°01'0 0.0
2019-Jul-16 05:00N 53°27' W 003°01'0 0.2
2019-Jul-16 04:30N 53°27' W 003°01'0 0.8
2019-Jul-16 04:00N 53°27' W 003°01'1 1.3
2019-Jul-16 03:30N 53°27' W 003°02'611.1
2019-Jul-16 03:01N 53°32' W 003°08'815.4
2019-Jul-16 02:31N 53°31' W 003°21'713.7
2019-Jul-16 02:01N 53°31' W 003°32'714.4
2019-Jul-16 01:31N 53°31' W 003°44'714.7
2019-Jul-16 01:00N 53°32' W 003°57'815.4
2019-Jul-16 00:31N 53°33' W 004°10'915.6
2019-Jul-15 23:57N 53°34' W 004°24'716.1
2019-Jul-15 23:31N 53°35' W 004°36'816.8
2019-Jul-15 23:00N 53°34' W 004°50'4117.8
2019-Jul-15 20:42N 53°22' W 005°56'417.7
2019-Jul-15 20:30N 53°21' W 006°02'612.3
2019-Jul-15 20:00N 53°21' W 006°12'1 1.0
2019-Jul-15 19:18N 53°21' W 006°13'0 0.0
2019-Jul-15 18:39N 53°21' W 006°13'0 0.0
2019-Jul-15 18:27N 53°21' W 006°13'0 0.0
2019-Jul-15 18:00N 53°21' W 006°13'0 0.0
2019-Jul-15 17:23N 53°21' W 006°13'0 0.2
2019-Jul-15 16:41N 53°21' W 006°13'0 0.1
2019-Jul-15 16:29N 53°21' W 006°13'0 0.0
2019-Jul-15 15:59N 53°21' W 006°13'0 0.0
2019-Jul-15 15:29N 53°21' W 006°13'0 0.0
2019-Jul-15 14:55N 53°21' W 006°13'0 0.0
2019-Jul-15 14:19N 53°21' W 006°13'0 0.0
2019-Jul-15 13:43N 53°21' W 006°13'0 0.0
2019-Jul-15 13:10N 53°21' W 006°13'0 0.0
2019-Jul-15 12:58N 53°21' W 006°13'0 0.0
2019-Jul-15 12:30N 53°21' W 006°13'0 0.0
2019-Jul-15 12:00N 53°21' W 006°13'0 0.0
2019-Jul-15 11:24N 53°21' W 006°13'0 0.0
2019-Jul-15 10:51N 53°21' W 006°13'0 0.0
2019-Jul-15 10:14N 53°21' W 006°13'0 0.0
2019-Jul-15 09:59N 53°21' W 006°13'0 0.0
2019-Jul-15 09:29N 53°21' W 006°13'0 0.0
2019-Jul-15 08:59N 53°21' W 006°13'0 0.0
2019-Jul-15 08:26N 53°21' W 006°13'0 0.0
2019-Jul-15 07:49N 53°21' W 006°13'0 0.2
2019-Jul-15 07:07N 53°21' W 006°13'0 0.0
2019-Jul-15 06:40N 53°21' W 006°13'0 0.0
2019-Jul-15 06:28N 53°21' W 006°13'0 0.0
2019-Jul-15 06:00N 53°21' W 006°13'0 0.0
2019-Jul-15 05:21N 53°21' W 006°13'0 0.0
2019-Jul-15 04:51N 53°21' W 006°13'0 0.0
2019-Jul-15 04:30N 53°21' W 006°13'2 3.7
2019-Jul-15 04:00N 53°21' W 006°10'714.0
2019-Jul-15 03:30N 53°22' W 005°59'7516.2
2019-Jul-14 22:54N 53°33' W 003°55'717.0
2019-Jul-14 22:31N 53°33' W 003°44'816.6
2019-Jul-14 22:01N 53°33' W 003°30'917.2
2019-Jul-14 21:31N 53°31' W 003°15'816.2
2019-Jul-14 21:01N 53°28' W 003°03'2 3.0
2019-Jul-14 20:30N 53°27' W 003°01'0 0.8
2019-Jul-14 19:58N 53°27' W 003°01'0 0.0
2019-Jul-14 19:28N 53°27' W 003°01'0 0.0
2019-Jul-14 19:00N 53°27' W 003°01'0 0.0
2019-Jul-14 18:30N 53°27' W 003°01'0 0.0
2019-Jul-14 18:00N 53°27' W 003°01'0 0.0
2019-Jul-14 17:30N 53°27' W 003°01'0 0.0
2019-Jul-14 17:00N 53°27' W 003°01'0 0.0
2019-Jul-14 16:29N 53°27' W 003°01'0 0.0
2019-Jul-14 15:56N 53°27' W 003°01'0 0.0
2019-Jul-14 15:29N 53°27' W 003°01'0 0.0
2019-Jul-14 14:59N 53°27' W 003°01'0 0.0
2019-Jul-14 14:28N 53°27' W 003°01'0 0.0
2019-Jul-14 13:58N 53°27' W 003°01'0 0.0
2019-Jul-14 13:28N 53°27' W 003°01'0 0.0
2019-Jul-14 12:58N 53°27' W 003°01'0 0.0
2019-Jul-14 12:28N 53°27' W 003°01'0 0.0
2019-Jul-14 12:00N 53°27' W 003°01'0 0.0
2019-Jul-14 11:30N 53°27' W 003°01'0 0.0
2019-Jul-14 11:00N 53°27' W 003°01'0 0.0
2019-Jul-14 10:30N 53°27' W 003°01'0 0.0
2019-Jul-14 10:00N 53°27' W 003°01'0 0.0
2019-Jul-14 09:29N 53°27' W 003°01'0 0.0
2019-Jul-14 08:59N 53°27' W 003°01'0 0.0
2019-Jul-14 08:29N 53°27' W 003°01'0 0.0
2019-Jul-14 07:59N 53°27' W 003°01'0 0.0
2019-Jul-14 07:28N 53°27' W 003°01'0 0.0
2019-Jul-14 06:58N 53°27' W 003°01'0 0.0
2019-Jul-14 06:28N 53°27' W 003°01'0 0.0
2019-Jul-14 05:58N 53°27' W 003°01'0 0.0
2019-Jul-14 05:28N 53°27' W 003°01'0 0.0
2019-Jul-14 05:00N 53°27' W 003°01'0 0.9
2019-Jul-14 04:30N 53°27' W 003°01'0 0.4
2019-Jul-14 04:00N 53°27' W 003°01'714.4
2019-Jul-14 03:30N 53°32' W 003°11'816.4
2019-Jul-14 03:00N 53°31' W 003°24'714.7
2019-Jul-14 02:30N 53°31' W 003°37'815.0
2019-Jul-14 02:00N 53°32' W 003°49'714.8
2019-Jul-14 01:31N 53°33' W 004°02'7115.0
2019-Jul-13 20:46N 53°21' W 005°60'415.3
2019-Jul-13 20:31N 53°20' W 006°06'4 8.4
2019-Jul-13 20:01N 53°21' W 006°13'0 0.0
2019-Jul-13 19:30N 53°21' W 006°13'0 0.0
2019-Jul-13 19:01N 53°21' W 006°13'0 0.0
2019-Jul-13 18:30N 53°21' W 006°13'0 0.0
2019-Jul-13 18:01N 53°21' W 006°13'0 0.0
2019-Jul-13 17:31N 53°21' W 006°13'0 0.0
2019-Jul-13 17:01N 53°21' W 006°13'0 0.0
2019-Jul-13 16:31N 53°21' W 006°13'2 3.0
2019-Jul-13 15:59N 53°21' W 006°10'714.9
2019-Jul-13 15:30N 53°22' W 005°59'916.8
2019-Jul-13 14:57N 53°24' W 005°43'7218.2
2019-Jul-13 10:57N 53°33' W 003°43'919.9
2019-Jul-13 10:30N 53°33' W 003°28'1019.1
2019-Jul-13 10:00N 53°32' W 003°12'815.8
2019-Jul-13 09:31N 53°27' W 003°01'0 0.8
2019-Jul-13 09:01N 53°27' W 003°01'0 0.5
2019-Jul-13 08:28N 53°27' W 003°01'0 0.0
2019-Jul-13 07:58N 53°27' W 003°01'0 0.0
2019-Jul-13 07:28N 53°27' W 003°01'0 0.0
2019-Jul-13 06:57N 53°27' W 003°01'0 0.0
2019-Jul-13 06:30N 53°27' W 003°01'0 0.0
2019-Jul-13 06:00N 53°27' W 003°01'0 0.0
2019-Jul-13 05:30N 53°27' W 003°01'0 0.0
2019-Jul-13 05:00N 53°27' W 003°01'0 0.0
2019-Jul-13 04:29N 53°27' W 003°01'0 0.9
2019-Jul-13 04:01N 53°27' W 003°01'0 0.2
2019-Jul-13 03:30N 53°27' W 003°01'714.6
2019-Jul-13 03:00N 53°32' W 003°10'917.4
2019-Jul-13 02:30N 53°31' W 003°25'917.5
2019-Jul-13 02:00N 53°31' W 003°40'918.1
2019-Jul-13 01:30N 53°32' W 003°55'917.4
2019-Jul-13 01:00N 53°33' W 004°09'6716.0
2019-Jul-12 20:51N 53°21' W 005°59'515.1
2019-Jul-12 20:30N 53°21' W 006°08'3 6.1
2019-Jul-12 20:00N 53°21' W 006°13'0 0.0
2019-Jul-12 19:25N 53°21' W 006°13'0 0.0
2019-Jul-12 18:43N 53°21' W 006°13'0 0.0
2019-Jul-12 18:28N 53°21' W 006°13'0 0.0
2019-Jul-12 18:01N 53°21' W 006°13'0 0.0
2019-Jul-12 17:18N 53°21' W 006°13'0 0.0
2019-Jul-12 16:40N 53°21' W 006°13'0 0.0
2019-Jul-12 16:31N 53°21' W 006°13'2 4.5
2019-Jul-12 16:01N 53°21' W 006°09'815.6
2019-Jul-12 15:29N 53°22' W 005°56'8017.6
2019-Jul-12 10:58N 53°33' W 003°43'817.6
2019-Jul-12 10:31N 53°33' W 003°30'917.3
2019-Jul-12 10:01N 53°31' W 003°16'816.6
2019-Jul-12 09:30N 53°28' W 003°03'1 2.7
2019-Jul-12 09:00N 53°27' W 003°01'0 0.8
2019-Jul-12 08:29N 53°27' W 003°01'0 0.0
2019-Jul-12 07:59N 53°27' W 003°01'0 0.0
2019-Jul-12 07:29N 53°27' W 003°01'0 0.0
2019-Jul-12 06:59N 53°27' W 003°01'0 0.0
2019-Jul-12 06:28N 53°27' W 003°01'0 0.0
2019-Jul-12 05:58N 53°27' W 003°01'0 0.0
2019-Jul-12 05:28N 53°27' W 003°01'0 0.0
2019-Jul-12 04:58N 53°27' W 003°01'0 0.0
2019-Jul-12 04:30N 53°27' W 003°01'0 0.9
2019-Jul-12 04:00N 53°27' W 003°01'0 0.3
2019-Jul-12 03:31N 53°27' W 003°01'714.6
2019-Jul-12 03:00N 53°32' W 003°10'918.6
2019-Jul-12 02:30N 53°31' W 003°26'1918.9
2019-Jul-12 01:30N 53°33' W 003°58'1019.0
2019-Jul-12 01:00N 53°35' W 004°13'1018.7
2019-Jul-12 00:29N 53°37' W 004°29'5617.0
2019-Jul-11 21:10N 53°21' W 005°60'316.4
2019-Jul-11 21:01N 53°20' W 006°04'510.3
2019-Jul-11 20:30N 53°21' W 006°13'0 0.3
2019-Jul-11 19:43N 53°21' W 006°13'0 0.0
2019-Jul-11 19:01N 53°21' W 006°13'0 0.0
2019-Jul-11 18:58N 53°21' W 006°13'0 0.0
2019-Jul-11 18:22N 53°21' W 006°13'0 0.0
2019-Jul-11 17:39N 53°21' W 006°13'0 0.0
2019-Jul-11 17:30N 53°21' W 006°13'0 0.0
2019-Jul-11 16:57N 53°21' W 006°13'0 0.0
2019-Jul-11 16:30N 53°21' W 006°13'2 4.3
2019-Jul-11 16:00N 53°21' W 006°09'714.6
2019-Jul-11 15:30N 53°22' W 005°58'7917.1
2019-Jul-11 10:53N 53°34' W 003°46'717.7
2019-Jul-11 10:30N 53°33' W 003°35'917.5
2019-Jul-11 10:00N 53°32' W 003°20'917.5
2019-Jul-11 09:30N 53°31' W 003°06'5 9.1
2019-Jul-11 09:00N 53°27' W 003°01'0 0.8
2019-Jul-11 08:30N 53°27' W 003°01'0 0.2
2019-Jul-11 07:59N 53°27' W 003°01'0 0.0
2019-Jul-11 07:29N 53°27' W 003°01'0 0.0
2019-Jul-11 06:56N 53°27' W 003°01'0 0.0
2019-Jul-11 06:28N 53°27' W 003°01'0 0.0
2019-Jul-11 05:55N 53°27' W 003°01'0 0.0
2019-Jul-11 05:25N 53°27' W 003°01'0 0.0
2019-Jul-11 04:58N 53°27' W 003°01'0 0.0
2019-Jul-11 04:28N 53°27' W 003°01'0 0.9
2019-Jul-11 04:00N 53°27' W 003°01'0 0.4
2019-Jul-11 03:31N 53°27' W 003°01'714.4
2019-Jul-11 03:01N 53°32' W 003°10'1019.1
2019-Jul-11 02:31N 53°31' W 003°26'1019.5
2019-Jul-11 02:00N 53°31' W 003°42'1019.7
2019-Jul-11 01:31N 53°34' W 003°58'1519.8
2019-Jul-11 00:46N 53°36' W 004°23'5717.1
2019-Jul-10 21:25N 53°22' W 005°57'615.2
2019-Jul-10 21:00N 53°20' W 006°07'4 7.7
2019-Jul-10 20:30N 53°21' W 006°13'0 0.0
2019-Jul-10 20:00N 53°21' W 006°13'0 0.0
2019-Jul-10 19:27N 53°21' W 006°13'0 0.0
2019-Jul-10 18:41N 53°21' W 006°13'0 0.0
2019-Jul-10 18:26N 53°21' W 006°13'0 0.0
2019-Jul-10 17:59N 53°21' W 006°13'0 0.0
2019-Jul-10 17:17N 53°21' W 006°13'0 0.0
2019-Jul-10 16:59N 53°21' W 006°13'0 0.0
2019-Jul-10 16:30N 53°21' W 006°13'2 4.9
2019-Jul-10 16:00N 53°21' W 006°09'816.1
2019-Jul-10 15:30N 53°22' W 005°56'7316.2
2019-Jul-10 10:59N 53°34' W 003°54'817.1
2019-Jul-10 10:30N 53°33' W 003°40'917.6
2019-Jul-10 10:00N 53°33' W 003°25'917.6
2019-Jul-10 09:30N 53°32' W 003°11'815.1
2019-Jul-10 09:01N 53°27' W 003°01'0 0.2
2019-Jul-10 08:31N 53°27' W 003°01'0 0.9
2019-Jul-10 08:00N 53°27' W 003°01'0 0.0
2019-Jul-10 07:30N 53°27' W 003°01'0 0.0
2019-Jul-10 06:59N 53°27' W 003°01'0 0.0
2019-Jul-10 06:29N 53°27' W 003°01'0 0.0
2019-Jul-10 05:59N 53°27' W 003°01'0 0.0
2019-Jul-10 05:29N 53°27' W 003°01'0 0.0
2019-Jul-10 04:59N 53°27' W 003°01'0 0.0
2019-Jul-10 04:28N 53°27' W 003°01'0 0.0
2019-Jul-10 03:58N 53°27' W 003°01'0 0.4
2019-Jul-10 03:30N 53°27' W 003°01'0 1.0
2019-Jul-10 03:00N 53°27' W 003°01'611.5
2019-Jul-10 02:30N 53°31' W 003°07'815.8
2019-Jul-10 02:01N 53°31' W 003°20'1019.9
2019-Jul-10 01:30N 53°31' W 003°37'  

Dump ship's entire track history